sensor_id;sensor_type;location;lat;lon;timestamp;P1;durP1;ratioP1;P2;durP2;ratioP2
46365;SDS011;32073;49.166;8.076;2022-10-30T00:00:15;6.18;;;2.65;;
46365;SDS011;32073;49.166;8.076;2022-10-30T00:04:16;5.72;;;2.20;;
46365;SDS011;32073;49.166;8.076;2022-10-30T00:08:17;6.68;;;2.33;;
46365;SDS011;32073;49.166;8.076;2022-10-30T00:12:20;8.13;;;3.03;;
46365;SDS011;32073;49.166;8.076;2022-10-30T00:16:21;7.55;;;3.10;;
46365;SDS011;32073;49.166;8.076;2022-10-30T00:20:21;7.45;;;2.83;;
46365;SDS011;32073;49.166;8.076;2022-10-30T00:24:22;4.60;;;2.65;;
46365;SDS011;32073;49.166;8.076;2022-10-30T00:28:23;8.95;;;3.05;;
46365;SDS011;32073;49.166;8.076;2022-10-30T00:32:24;7.70;;;2.72;;
46365;SDS011;32073;49.166;8.076;2022-10-30T00:36:25;4.50;;;2.53;;
46365;SDS011;32073;49.166;8.076;2022-10-30T00:40:25;4.60;;;2.63;;
46365;SDS011;32073;49.166;8.076;2022-10-30T00:44:36;8.30;;;2.83;;
46365;SDS011;32073;49.166;8.076;2022-10-30T00:48:44;13.60;;;3.30;;
46365;SDS011;32073;49.166;8.076;2022-10-30T00:52:55;9.18;;;3.63;;
46365;SDS011;32073;49.166;8.076;2022-10-30T00:57:01;6.40;;;2.75;;
46365;SDS011;32073;49.166;8.076;2022-10-30T01:01:06;8.32;;;3.05;;
46365;SDS011;32073;49.166;8.076;2022-10-30T01:05:14;8.73;;;2.78;;
46365;SDS011;32073;49.166;8.076;2022-10-30T01:09:18;6.90;;;3.08;;
46365;SDS011;32073;49.166;8.076;2022-10-30T01:13:19;10.73;;;3.30;;
46365;SDS011;32073;49.166;8.076;2022-10-30T01:26:21;3.40;;;2.20;;
46365;SDS011;32073;49.166;8.076;2022-10-30T01:30:51;6.20;;;2.72;;
46365;SDS011;32073;49.166;8.076;2022-10-30T01:35:46;6.22;;;3.10;;
46365;SDS011;32073;49.166;8.076;2022-10-30T01:40:17;7.15;;;2.10;;
46365;SDS011;32073;49.166;8.076;2022-10-30T01:44:21;7.82;;;3.15;;
46365;SDS011;32073;49.166;8.076;2022-10-30T01:52:56;7.53;;;2.60;;
46365;SDS011;32073;49.166;8.076;2022-10-30T01:57:22;7.55;;;3.40;;
46365;SDS011;32073;49.166;8.076;2022-10-30T02:01:40;11.70;;;4.40;;
46365;SDS011;32073;49.166;8.076;2022-10-30T02:05:50;10.10;;;3.65;;
46365;SDS011;32073;49.166;8.076;2022-10-30T02:09:52;9.88;;;3.53;;
46365;SDS011;32073;49.166;8.076;2022-10-30T02:13:54;8.57;;;3.38;;
46365;SDS011;32073;49.166;8.076;2022-10-30T02:17:56;9.18;;;3.45;;
46365;SDS011;32073;49.166;8.076;2022-10-30T02:21:57;10.45;;;3.13;;
46365;SDS011;32073;49.166;8.076;2022-10-30T02:25:58;7.93;;;2.92;;
46365;SDS011;32073;49.166;8.076;2022-10-30T02:29:58;8.57;;;3.47;;
46365;SDS011;32073;49.166;8.076;2022-10-30T02:33:59;9.05;;;3.40;;
46365;SDS011;32073;49.166;8.076;2022-10-30T02:38:00;6.43;;;3.10;;
46365;SDS011;32073;49.166;8.076;2022-10-30T02:42:02;9.57;;;3.28;;
46365;SDS011;32073;49.166;8.076;2022-10-30T02:46:04;8.25;;;3.10;;
46365;SDS011;32073;49.166;8.076;2022-10-30T02:50:05;9.20;;;3.45;;
46365;SDS011;32073;49.166;8.076;2022-10-30T02:54:07;7.38;;;3.35;;
46365;SDS011;32073;49.166;8.076;2022-10-30T02:58:07;10.10;;;3.92;;
46365;SDS011;32073;49.166;8.076;2022-10-30T03:02:08;6.70;;;3.78;;
46365;SDS011;32073;49.166;8.076;2022-10-30T03:06:10;9.38;;;4.50;;
46365;SDS011;32073;49.166;8.076;2022-10-30T03:10:14;12.27;;;5.28;;
46365;SDS011;32073;49.166;8.076;2022-10-30T03:14:15;9.88;;;5.05;;
46365;SDS011;32073;49.166;8.076;2022-10-30T03:18:15;9.88;;;4.75;;
46365;SDS011;32073;49.166;8.076;2022-10-30T03:22:16;10.30;;;5.45;;
46365;SDS011;32073;49.166;8.076;2022-10-30T03:26:17;11.00;;;5.28;;
46365;SDS011;32073;49.166;8.076;2022-10-30T03:30:19;8.02;;;4.25;;
46365;SDS011;32073;49.166;8.076;2022-10-30T03:34:19;12.00;;;5.57;;
46365;SDS011;32073;49.166;8.076;2022-10-30T03:38:20;14.75;;;7.78;;
46365;SDS011;32073;49.166;8.076;2022-10-30T03:42:20;17.85;;;7.18;;
46365;SDS011;32073;49.166;8.076;2022-10-30T03:46:21;13.77;;;6.07;;
46365;SDS011;32073;49.166;8.076;2022-10-30T03:50:22;13.23;;;5.25;;
46365;SDS011;32073;49.166;8.076;2022-10-30T03:54:22;9.95;;;4.63;;
46365;SDS011;32073;49.166;8.076;2022-10-30T03:58:23;13.32;;;4.53;;
46365;SDS011;32073;49.166;8.076;2022-10-30T04:02:25;12.98;;;4.57;;
46365;SDS011;32073;49.166;8.076;2022-10-30T04:06:25;11.35;;;4.53;;
46365;SDS011;32073;49.166;8.076;2022-10-30T04:10:26;10.88;;;3.83;;
46365;SDS011;32073;49.166;8.076;2022-10-30T04:14:27;7.93;;;4.13;;
46365;SDS011;32073;49.166;8.076;2022-10-30T04:18:28;9.45;;;4.15;;
46365;SDS011;32073;49.166;8.076;2022-10-30T04:22:28;10.93;;;3.75;;
46365;SDS011;32073;49.166;8.076;2022-10-30T04:26:29;11.30;;;4.38;;
46365;SDS011;32073;49.166;8.076;2022-10-30T04:30:30;9.13;;;4.03;;
46365;SDS011;32073;49.166;8.076;2022-10-30T04:34:37;8.32;;;3.53;;
46365;SDS011;32073;49.166;8.076;2022-10-30T04:38:38;14.93;;;3.72;;
46365;SDS011;32073;49.166;8.076;2022-10-30T04:42:39;7.65;;;3.42;;
46365;SDS011;32073;49.166;8.076;2022-10-30T04:46:39;10.55;;;3.67;;
46365;SDS011;32073;49.166;8.076;2022-10-30T04:50:40;10.35;;;3.67;;
46365;SDS011;32073;49.166;8.076;2022-10-30T04:54:42;8.65;;;3.42;;
46365;SDS011;32073;49.166;8.076;2022-10-30T04:58:43;8.70;;;3.67;;
46365;SDS011;32073;49.166;8.076;2022-10-30T05:02:44;9.25;;;3.67;;
46365;SDS011;32073;49.166;8.076;2022-10-30T05:06:44;6.60;;;3.20;;
46365;SDS011;32073;49.166;8.076;2022-10-30T05:10:45;6.93;;;2.80;;
46365;SDS011;32073;49.166;8.076;2022-10-30T05:14:45;11.68;;;4.10;;
46365;SDS011;32073;49.166;8.076;2022-10-30T05:18:46;8.52;;;3.00;;
46365;SDS011;32073;49.166;8.076;2022-10-30T05:22:54;10.52;;;2.88;;
46365;SDS011;32073;49.166;8.076;2022-10-30T05:26:55;8.23;;;2.90;;
46365;SDS011;32073;49.166;8.076;2022-10-30T05:30:56;7.95;;;2.78;;
46365;SDS011;32073;49.166;8.076;2022-10-30T05:34:57;6.85;;;2.63;;
46365;SDS011;32073;49.166;8.076;2022-10-30T05:38:57;6.40;;;2.90;;
46365;SDS011;32073;49.166;8.076;2022-10-30T05:42:58;4.07;;;2.55;;
46365;SDS011;32073;49.166;8.076;2022-10-30T05:46:59;5.65;;;2.72;;
46365;SDS011;32073;49.166;8.076;2022-10-30T05:51:00;6.72;;;2.72;;
46365;SDS011;32073;49.166;8.076;2022-10-30T05:55:01;10.07;;;3.47;;
46365;SDS011;32073;49.166;8.076;2022-10-30T05:59:02;7.95;;;3.42;;
46365;SDS011;32073;49.166;8.076;2022-10-30T06:03:03;9.85;;;2.85;;
46365;SDS011;32073;49.166;8.076;2022-10-30T06:07:06;7.10;;;3.53;;
46365;SDS011;32073;49.166;8.076;2022-10-30T06:11:07;9.85;;;3.25;;
46365;SDS011;32073;49.166;8.076;2022-10-30T06:15:08;10.25;;;3.58;;
46365;SDS011;32073;49.166;8.076;2022-10-30T06:19:08;9.07;;;3.85;;
46365;SDS011;32073;49.166;8.076;2022-10-30T06:23:09;7.90;;;2.47;;
46365;SDS011;32073;49.166;8.076;2022-10-30T06:27:10;8.27;;;2.97;;
46365;SDS011;32073;49.166;8.076;2022-10-30T06:31:11;5.55;;;2.67;;
46365;SDS011;32073;49.166;8.076;2022-10-30T06:35:11;5.07;;;2.53;;
46365;SDS011;32073;49.166;8.076;2022-10-30T06:39:12;9.98;;;2.35;;
46365;SDS011;32073;49.166;8.076;2022-10-30T06:43:13;6.03;;;2.40;;
46365;SDS011;32073;49.166;8.076;2022-10-30T06:47:14;9.90;;;3.35;;
46365;SDS011;32073;49.166;8.076;2022-10-30T06:51:15;9.25;;;3.58;;
46365;SDS011;32073;49.166;8.076;2022-10-30T06:55:16;5.80;;;3.50;;
46365;SDS011;32073;49.166;8.076;2022-10-30T06:59:17;10.45;;;3.92;;
46365;SDS011;32073;49.166;8.076;2022-10-30T07:03:18;7.75;;;3.35;;
46365;SDS011;32073;49.166;8.076;2022-10-30T07:07:19;6.32;;;2.78;;
46365;SDS011;32073;49.166;8.076;2022-10-30T07:11:20;8.77;;;3.20;;
46365;SDS011;32073;49.166;8.076;2022-10-30T07:15:21;6.90;;;3.17;;
46365;SDS011;32073;49.166;8.076;2022-10-30T07:19:22;5.05;;;2.78;;
46365;SDS011;32073;49.166;8.076;2022-10-30T07:23:22;4.10;;;2.90;;
46365;SDS011;32073;49.166;8.076;2022-10-30T07:27:23;6.13;;;3.08;;
46365;SDS011;32073;49.166;8.076;2022-10-30T07:31:24;2.70;;;2.38;;
46365;SDS011;32073;49.166;8.076;2022-10-30T07:35:24;4.53;;;2.70;;
46365;SDS011;32073;49.166;8.076;2022-10-30T07:39:25;6.25;;;3.63;;
46365;SDS011;32073;49.166;8.076;2022-10-30T07:43:26;3.97;;;3.30;;
46365;SDS011;32073;49.166;8.076;2022-10-30T07:47:27;5.82;;;4.07;;
46365;SDS011;32073;49.166;8.076;2022-10-30T07:51:27;8.43;;;5.00;;
46365;SDS011;32073;49.166;8.076;2022-10-30T07:55:28;10.50;;;5.75;;
46365;SDS011;32073;49.166;8.076;2022-10-30T07:59:29;14.13;;;8.65;;
46365;SDS011;32073;49.166;8.076;2022-10-30T08:03:29;52.75;;;23.95;;
46365;SDS011;32073;49.166;8.076;2022-10-30T08:07:30;44.47;;;20.60;;
46365;SDS011;32073;49.166;8.076;2022-10-30T08:11:33;60.20;;;23.50;;
46365;SDS011;32073;49.166;8.076;2022-10-30T08:15:34;48.55;;;17.38;;
46365;SDS011;32073;49.166;8.076;2022-10-30T08:19:34;60.38;;;20.02;;
46365;SDS011;32073;49.166;8.076;2022-10-30T08:23:35;50.63;;;17.67;;
46365;SDS011;32073;49.166;8.076;2022-10-30T08:27:36;27.65;;;10.65;;
46365;SDS011;32073;49.166;8.076;2022-10-30T08:31:36;17.50;;;8.20;;
46365;SDS011;32073;49.166;8.076;2022-10-30T08:35:37;10.00;;;4.10;;
46365;SDS011;32073;49.166;8.076;2022-10-30T08:39:38;11.45;;;4.82;;
46365;SDS011;32073;49.166;8.076;2022-10-30T08:43:39;5.80;;;4.07;;
46365;SDS011;32073;49.166;8.076;2022-10-30T08:47:39;8.38;;;4.15;;
46365;SDS011;32073;49.166;8.076;2022-10-30T08:51:40;15.27;;;3.65;;
46365;SDS011;32073;49.166;8.076;2022-10-30T08:55:41;5.70;;;3.30;;
46365;SDS011;32073;49.166;8.076;2022-10-30T08:59:42;8.02;;;2.67;;
46365;SDS011;32073;49.166;8.076;2022-10-30T09:03:43;22.70;;;11.40;;
46365;SDS011;32073;49.166;8.076;2022-10-30T09:07:44;10.65;;;5.85;;
46365;SDS011;32073;49.166;8.076;2022-10-30T09:11:46;10.05;;;5.72;;
46365;SDS011;32073;49.166;8.076;2022-10-30T09:15:48;6.40;;;3.45;;
46365;SDS011;32073;49.166;8.076;2022-10-30T09:19:48;11.15;;;3.75;;
46365;SDS011;32073;49.166;8.076;2022-10-30T09:23:49;5.10;;;2.63;;
46365;SDS011;32073;49.166;8.076;2022-10-30T09:27:49;5.57;;;2.90;;
46365;SDS011;32073;49.166;8.076;2022-10-30T09:31:50;4.53;;;2.75;;
46365;SDS011;32073;49.166;8.076;2022-10-30T09:35:51;7.80;;;4.03;;
46365;SDS011;32073;49.166;8.076;2022-10-30T09:39:51;5.07;;;3.30;;
46365;SDS011;32073;49.166;8.076;2022-10-30T09:57:08;6.32;;;3.72;;
46365;SDS011;32073;49.166;8.076;2022-10-30T10:06:03;11.23;;;3.97;;
46365;SDS011;32073;49.166;8.076;2022-10-30T10:10:20;4.28;;;2.88;;
46365;SDS011;32073;49.166;8.076;2022-10-30T10:14:44;9.77;;;4.03;;
46365;SDS011;32073;49.166;8.076;2022-10-30T10:23:38;6.32;;;3.63;;
46365;SDS011;32073;49.166;8.076;2022-10-30T10:32:21;4.60;;;3.17;;
46365;SDS011;32073;49.166;8.076;2022-10-30T10:37:13;7.35;;;3.30;;
46365;SDS011;32073;49.166;8.076;2022-10-30T10:41:43;4.43;;;2.60;;
46365;SDS011;32073;49.166;8.076;2022-10-30T10:45:58;6.75;;;3.10;;
46365;SDS011;32073;49.166;8.076;2022-10-30T10:54:39;7.80;;;4.03;;
46365;SDS011;32073;49.166;8.076;2022-10-30T10:58:47;7.43;;;3.08;;
46365;SDS011;32073;49.166;8.076;2022-10-30T11:07:21;6.80;;;3.95;;
46365;SDS011;32073;49.166;8.076;2022-10-30T11:11:24;8.63;;;3.67;;
46365;SDS011;32073;49.166;8.076;2022-10-30T11:20:00;5.80;;;2.63;;
46365;SDS011;32073;49.166;8.076;2022-10-30T11:24:27;3.88;;;2.38;;
46365;SDS011;32073;49.166;8.076;2022-10-30T11:28:34;3.42;;;2.15;;
46365;SDS011;32073;49.166;8.076;2022-10-30T11:32:59;7.32;;;3.08;;
46365;SDS011;32073;49.166;8.076;2022-10-30T11:37:28;5.25;;;2.42;;
46365;SDS011;32073;49.166;8.076;2022-10-30T11:41:32;7.05;;;2.85;;
46365;SDS011;32073;49.166;8.076;2022-10-30T11:45:35;4.78;;;2.60;;
46365;SDS011;32073;49.166;8.076;2022-10-30T11:49:44;8.82;;;4.60;;
46365;SDS011;32073;49.166;8.076;2022-10-30T11:53:55;11.02;;;5.45;;
46365;SDS011;32073;49.166;8.076;2022-10-30T11:57:57;7.40;;;3.42;;
46365;SDS011;32073;49.166;8.076;2022-10-30T12:01:59;6.30;;;3.00;;
46365;SDS011;32073;49.166;8.076;2022-10-30T12:06:26;7.80;;;2.50;;
46365;SDS011;32073;49.166;8.076;2022-10-30T12:10:29;5.53;;;2.45;;
46365;SDS011;32073;49.166;8.076;2022-10-30T12:14:29;50.28;;;22.10;;
46365;SDS011;32073;49.166;8.076;2022-10-30T12:18:31;18.02;;;8.13;;
46365;SDS011;32073;49.166;8.076;2022-10-30T12:22:33;11.65;;;4.93;;
46365;SDS011;32073;49.166;8.076;2022-10-30T12:26:34;6.78;;;3.42;;
46365;SDS011;32073;49.166;8.076;2022-10-30T12:30:39;8.98;;;3.97;;
46365;SDS011;32073;49.166;8.076;2022-10-30T12:35:04;14.90;;;7.57;;
46365;SDS011;32073;49.166;8.076;2022-10-30T12:39:43;8.25;;;3.45;;
46365;SDS011;32073;49.166;8.076;2022-10-30T12:44:07;6.25;;;2.22;;
46365;SDS011;32073;49.166;8.076;2022-10-30T12:52:25;5.53;;;2.15;;
46365;SDS011;32073;49.166;8.076;2022-10-30T12:56:38;5.13;;;1.77;;
46365;SDS011;32073;49.166;8.076;2022-10-30T13:00:54;3.95;;;2.00;;
46365;SDS011;32073;49.166;8.076;2022-10-30T13:09:55;5.63;;;2.45;;
46365;SDS011;32073;49.166;8.076;2022-10-30T13:18:46;7.15;;;2.88;;
46365;SDS011;32073;49.166;8.076;2022-10-30T13:22:59;7.40;;;2.47;;
46365;SDS011;32073;49.166;8.076;2022-10-30T13:27:16;6.18;;;2.97;;
46365;SDS011;32073;49.166;8.076;2022-10-30T13:31:30;6.53;;;2.65;;
46365;SDS011;32073;49.166;8.076;2022-10-30T13:36:04;4.45;;;2.00;;
46365;SDS011;32073;49.166;8.076;2022-10-30T13:40:24;6.55;;;2.03;;
46365;SDS011;32073;49.166;8.076;2022-10-30T13:49:08;3.22;;;1.90;;
46365;SDS011;32073;49.166;8.076;2022-10-30T13:53:42;4.95;;;1.90;;
46365;SDS011;32073;49.166;8.076;2022-10-30T13:58:33;3.20;;;1.88;;
46365;SDS011;32073;49.166;8.076;2022-10-30T14:02:30;7.45;;;2.15;;
46365;SDS011;32073;49.166;8.076;2022-10-30T14:10:52;9.70;;;4.43;;
46365;SDS011;32073;49.166;8.076;2022-10-30T14:14:55;14.85;;;7.03;;
46365;SDS011;32073;49.166;8.076;2022-10-30T14:19:08;11.82;;;5.78;;
46365;SDS011;32073;49.166;8.076;2022-10-30T14:27:34;22.40;;;10.57;;
46365;SDS011;32073;49.166;8.076;2022-10-30T14:31:34;11.27;;;5.43;;
46365;SDS011;32073;49.166;8.076;2022-10-30T14:35:36;10.98;;;5.55;;
46365;SDS011;32073;49.166;8.076;2022-10-30T14:39:42;6.65;;;4.40;;
46365;SDS011;32073;49.166;8.076;2022-10-30T14:43:48;7.05;;;3.70;;
46365;SDS011;32073;49.166;8.076;2022-10-30T14:56:46;4.57;;;2.72;;
46365;SDS011;32073;49.166;8.076;2022-10-30T15:01:16;4.00;;;2.65;;
46365;SDS011;32073;49.166;8.076;2022-10-30T15:10:19;23.70;;;12.95;;
46365;SDS011;32073;49.166;8.076;2022-10-30T15:14:33;8.75;;;4.80;;
46365;SDS011;32073;49.166;8.076;2022-10-30T15:18:39;9.48;;;5.18;;
46365;SDS011;32073;49.166;8.076;2022-10-30T15:22:40;13.65;;;8.98;;
46365;SDS011;32073;49.166;8.076;2022-10-30T15:26:41;9.27;;;5.20;;
46365;SDS011;32073;49.166;8.076;2022-10-30T15:30:57;7.50;;;3.42;;
46365;SDS011;32073;49.166;8.076;2022-10-30T15:35:08;5.78;;;3.00;;
46365;SDS011;32073;49.166;8.076;2022-10-30T15:39:24;5.60;;;3.08;;
46365;SDS011;32073;49.166;8.076;2022-10-30T15:43:38;5.68;;;3.20;;
46365;SDS011;32073;49.166;8.076;2022-10-30T15:47:43;7.43;;;2.85;;
46365;SDS011;32073;49.166;8.076;2022-10-30T15:51:47;11.95;;;3.63;;
46365;SDS011;32073;49.166;8.076;2022-10-30T15:55:48;8.80;;;3.75;;
46365;SDS011;32073;49.166;8.076;2022-10-30T15:59:50;7.88;;;4.18;;
46365;SDS011;32073;49.166;8.076;2022-10-30T16:03:55;27.20;;;12.23;;
46365;SDS011;32073;49.166;8.076;2022-10-30T16:07:59;19.00;;;8.48;;
46365;SDS011;32073;49.166;8.076;2022-10-30T16:12:02;9.65;;;4.88;;
46365;SDS011;32073;49.166;8.076;2022-10-30T16:16:03;11.88;;;4.50;;
46365;SDS011;32073;49.166;8.076;2022-10-30T16:20:05;13.40;;;4.80;;
46365;SDS011;32073;49.166;8.076;2022-10-30T16:24:07;12.75;;;4.70;;
46365;SDS011;32073;49.166;8.076;2022-10-30T16:32:39;9.32;;;5.03;;
46365;SDS011;32073;49.166;8.076;2022-10-30T16:36:42;12.82;;;5.25;;
46365;SDS011;32073;49.166;8.076;2022-10-30T16:40:43;18.30;;;10.02;;
46365;SDS011;32073;49.166;8.076;2022-10-30T16:44:44;10.80;;;5.60;;
46365;SDS011;32073;49.166;8.076;2022-10-30T16:48:53;9.15;;;5.00;;
46365;SDS011;32073;49.166;8.076;2022-10-30T16:53:14;6.72;;;3.80;;
46365;SDS011;32073;49.166;8.076;2022-10-30T16:57:25;11.75;;;3.58;;
46365;SDS011;32073;49.166;8.076;2022-10-30T17:01:28;9.70;;;4.55;;
46365;SDS011;32073;49.166;8.076;2022-10-30T17:05:32;12.50;;;4.85;;
46365;SDS011;32073;49.166;8.076;2022-10-30T17:09:35;10.45;;;5.43;;
46365;SDS011;32073;49.166;8.076;2022-10-30T17:13:55;15.60;;;10.75;;
46365;SDS011;32073;49.166;8.076;2022-10-30T17:18:09;25.13;;;13.38;;
46365;SDS011;32073;49.166;8.076;2022-10-30T17:22:16;36.40;;;20.77;;
46365;SDS011;32073;49.166;8.076;2022-10-30T17:26:19;19.88;;;13.23;;
46365;SDS011;32073;49.166;8.076;2022-10-30T17:30:30;20.42;;;12.38;;
46365;SDS011;32073;49.166;8.076;2022-10-30T17:34:37;12.07;;;7.05;;
46365;SDS011;32073;49.166;8.076;2022-10-30T17:38:38;18.45;;;11.73;;
46365;SDS011;32073;49.166;8.076;2022-10-30T17:42:39;10.45;;;6.28;;
46365;SDS011;32073;49.166;8.076;2022-10-30T17:46:40;14.73;;;8.45;;
46365;SDS011;32073;49.166;8.076;2022-10-30T17:50:41;14.15;;;7.57;;
46365;SDS011;32073;49.166;8.076;2022-10-30T17:54:42;17.15;;;9.68;;
46365;SDS011;32073;49.166;8.076;2022-10-30T17:58:43;13.55;;;6.32;;
46365;SDS011;32073;49.166;8.076;2022-10-30T18:02:44;8.73;;;5.50;;
46365;SDS011;32073;49.166;8.076;2022-10-30T18:06:45;7.78;;;4.55;;
46365;SDS011;32073;49.166;8.076;2022-10-30T18:10:46;8.20;;;3.78;;
46365;SDS011;32073;49.166;8.076;2022-10-30T18:14:47;5.55;;;2.70;;
46365;SDS011;32073;49.166;8.076;2022-10-30T18:18:47;5.15;;;2.20;;
46365;SDS011;32073;49.166;8.076;2022-10-30T18:22:49;7.00;;;1.85;;
46365;SDS011;32073;49.166;8.076;2022-10-30T18:26:49;6.20;;;1.80;;
46365;SDS011;32073;49.166;8.076;2022-10-30T18:30:51;4.35;;;1.75;;
46365;SDS011;32073;49.166;8.076;2022-10-30T18:34:54;5.88;;;2.15;;
46365;SDS011;32073;49.166;8.076;2022-10-30T18:38:55;5.20;;;2.50;;
46365;SDS011;32073;49.166;8.076;2022-10-30T18:42:57;4.88;;;2.50;;
46365;SDS011;32073;49.166;8.076;2022-10-30T18:46:58;7.03;;;2.33;;
46365;SDS011;32073;49.166;8.076;2022-10-30T18:50:59;4.60;;;2.20;;
46365;SDS011;32073;49.166;8.076;2022-10-30T18:54:59;7.63;;;2.38;;
46365;SDS011;32073;49.166;8.076;2022-10-30T18:59:00;6.65;;;2.63;;
46365;SDS011;32073;49.166;8.076;2022-10-30T19:03:01;3.45;;;1.98;;
46365;SDS011;32073;49.166;8.076;2022-10-30T19:07:02;5.03;;;2.28;;
46365;SDS011;32073;49.166;8.076;2022-10-30T19:11:03;3.72;;;1.92;;
46365;SDS011;32073;49.166;8.076;2022-10-30T19:15:16;4.43;;;2.58;;
46365;SDS011;32073;49.166;8.076;2022-10-30T19:19:20;3.40;;;2.55;;
46365;SDS011;32073;49.166;8.076;2022-10-30T19:23:21;6.47;;;2.40;;
46365;SDS011;32073;49.166;8.076;2022-10-30T19:27:24;3.33;;;1.90;;
46365;SDS011;32073;49.166;8.076;2022-10-30T19:31:25;6.13;;;2.40;;
46365;SDS011;32073;49.166;8.076;2022-10-30T19:35:25;3.50;;;1.83;;
46365;SDS011;32073;49.166;8.076;2022-10-30T19:39:27;2.20;;;1.50;;
46365;SDS011;32073;49.166;8.076;2022-10-30T19:43:27;3.83;;;1.95;;
46365;SDS011;32073;49.166;8.076;2022-10-30T19:47:28;4.15;;;2.78;;
46365;SDS011;32073;49.166;8.076;2022-10-30T19:51:29;4.55;;;2.42;;
46365;SDS011;32073;49.166;8.076;2022-10-30T19:55:30;4.15;;;2.50;;
46365;SDS011;32073;49.166;8.076;2022-10-30T19:59:33;4.70;;;3.78;;
46365;SDS011;32073;49.166;8.076;2022-10-30T20:03:33;7.22;;;4.03;;
46365;SDS011;32073;49.166;8.076;2022-10-30T20:07:34;5.80;;;4.60;;
46365;SDS011;32073;49.166;8.076;2022-10-30T20:11:35;14.75;;;8.60;;
46365;SDS011;32073;49.166;8.076;2022-10-30T20:15:35;14.07;;;6.97;;
46365;SDS011;32073;49.166;8.076;2022-10-30T20:19:36;7.15;;;4.63;;
46365;SDS011;32073;49.166;8.076;2022-10-30T20:23:37;8.52;;;3.72;;
46365;SDS011;32073;49.166;8.076;2022-10-30T20:27:39;7.13;;;3.83;;
46365;SDS011;32073;49.166;8.076;2022-10-30T20:31:41;6.43;;;3.58;;
46365;SDS011;32073;49.166;8.076;2022-10-30T20:35:42;5.82;;;3.13;;
46365;SDS011;32073;49.166;8.076;2022-10-30T20:39:43;5.82;;;2.90;;
46365;SDS011;32073;49.166;8.076;2022-10-30T20:43:43;5.78;;;2.78;;
46365;SDS011;32073;49.166;8.076;2022-10-30T20:47:44;6.22;;;2.95;;
46365;SDS011;32073;49.166;8.076;2022-10-30T20:51:46;5.35;;;2.70;;
46365;SDS011;32073;49.166;8.076;2022-10-30T20:55:47;8.38;;;2.70;;
46365;SDS011;32073;49.166;8.076;2022-10-30T20:59:48;6.55;;;3.22;;
46365;SDS011;32073;49.166;8.076;2022-10-30T21:03:48;6.45;;;2.50;;
46365;SDS011;32073;49.166;8.076;2022-10-30T21:07:49;6.75;;;3.15;;
46365;SDS011;32073;49.166;8.076;2022-10-30T21:11:50;7.93;;;3.13;;
46365;SDS011;32073;49.166;8.076;2022-10-30T21:15:51;8.38;;;3.13;;
46365;SDS011;32073;49.166;8.076;2022-10-30T21:19:51;10.82;;;3.63;;
46365;SDS011;32073;49.166;8.076;2022-10-30T21:23:53;6.82;;;3.22;;
46365;SDS011;32073;49.166;8.076;2022-10-30T21:27:57;6.47;;;2.97;;
46365;SDS011;32073;49.166;8.076;2022-10-30T21:31:58;7.22;;;2.85;;
46365;SDS011;32073;49.166;8.076;2022-10-30T21:36:32;6.65;;;2.92;;
46365;SDS011;32073;49.166;8.076;2022-10-30T21:40:26;6.75;;;2.88;;
46365;SDS011;32073;49.166;8.076;2022-10-30T21:44:26;4.22;;;2.50;;
46365;SDS011;32073;49.166;8.076;2022-10-30T21:48:27;5.00;;;2.78;;
46365;SDS011;32073;49.166;8.076;2022-10-30T21:52:28;5.47;;;2.92;;
46365;SDS011;32073;49.166;8.076;2022-10-30T21:56:29;6.88;;;2.83;;
46365;SDS011;32073;49.166;8.076;2022-10-30T22:00:29;6.95;;;2.30;;
46365;SDS011;32073;49.166;8.076;2022-10-30T22:04:31;3.92;;;2.50;;
46365;SDS011;32073;49.166;8.076;2022-10-30T22:08:32;4.18;;;2.55;;
46365;SDS011;32073;49.166;8.076;2022-10-30T22:12:33;4.00;;;2.22;;
46365;SDS011;32073;49.166;8.076;2022-10-30T22:16:34;4.20;;;2.10;;
46365;SDS011;32073;49.166;8.076;2022-10-30T22:20:37;4.18;;;1.95;;
46365;SDS011;32073;49.166;8.076;2022-10-30T22:24:38;4.78;;;2.40;;
46365;SDS011;32073;49.166;8.076;2022-10-30T22:28:38;3.35;;;2.08;;
46365;SDS011;32073;49.166;8.076;2022-10-30T22:32:40;3.17;;;1.73;;
46365;SDS011;32073;49.166;8.076;2022-10-30T22:36:40;6.45;;;2.10;;
46365;SDS011;32073;49.166;8.076;2022-10-30T22:40:41;4.95;;;2.40;;
46365;SDS011;32073;49.166;8.076;2022-10-30T22:44:42;4.13;;;2.00;;
46365;SDS011;32073;49.166;8.076;2022-10-30T22:48:43;4.65;;;2.30;;
46365;SDS011;32073;49.166;8.076;2022-10-30T22:52:44;4.15;;;2.30;;
46365;SDS011;32073;49.166;8.076;2022-10-30T22:56:45;2.85;;;2.13;;
46365;SDS011;32073;49.166;8.076;2022-10-30T23:00:46;4.95;;;2.05;;
46365;SDS011;32073;49.166;8.076;2022-10-30T23:04:46;4.22;;;2.00;;
46365;SDS011;32073;49.166;8.076;2022-10-30T23:08:47;4.10;;;1.80;;
46365;SDS011;32073;49.166;8.076;2022-10-30T23:12:48;4.78;;;1.90;;
46365;SDS011;32073;49.166;8.076;2022-10-30T23:16:49;3.90;;;2.10;;
46365;SDS011;32073;49.166;8.076;2022-10-30T23:20:50;3.90;;;2.08;;
46365;SDS011;32073;49.166;8.076;2022-10-30T23:24:50;9.02;;;2.13;;
46365;SDS011;32073;49.166;8.076;2022-10-30T23:28:52;4.40;;;2.00;;
46365;SDS011;32073;49.166;8.076;2022-10-30T23:32:53;4.70;;;2.13;;
46365;SDS011;32073;49.166;8.076;2022-10-30T23:36:54;3.88;;;1.77;;
46365;SDS011;32073;49.166;8.076;2022-10-30T23:40:55;4.63;;;2.00;;
46365;SDS011;32073;49.166;8.076;2022-10-30T23:44:56;5.05;;;1.73;;
46365;SDS011;32073;49.166;8.076;2022-10-30T23:48:57;5.15;;;1.77;;
46365;SDS011;32073;49.166;8.076;2022-10-30T23:52:58;3.75;;;1.58;;
46365;SDS011;32073;49.166;8.076;2022-10-30T23:56:59;5.40;;;1.73;;
